createdAt,value
2018-07-27T00:00:12.649Z,60.00
2018-07-27T00:02:16.219Z,61.10
2018-07-27T00:04:19.739Z,60.70
2018-07-27T00:06:23.286Z,61.20
2018-07-27T00:08:26.913Z,61.20
2018-07-27T00:10:30.399Z,61.90
2018-07-27T00:12:33.959Z,62.50
2018-07-27T00:14:37.467Z,63.10
2018-07-27T00:16:41.147Z,63.30
2018-07-27T00:18:44.706Z,62.90
2018-07-27T00:20:48.203Z,63.00
2018-07-27T00:22:51.905Z,62.50
2018-07-27T00:24:55.415Z,62.30
2018-07-27T00:26:59.027Z,62.10
2018-07-27T00:29:02.612Z,62.90
2018-07-27T00:31:06.241Z,62.70
2018-07-27T00:33:09.811Z,62.50
2018-07-27T00:35:13.387Z,62.10
2018-07-27T00:37:16.957Z,61.90
2018-07-27T00:39:20.461Z,62.00
2018-07-27T00:41:23.985Z,62.20
2018-07-27T00:43:27.548Z,62.60
2018-07-27T00:45:31.090Z,62.90
2018-07-27T00:47:34.743Z,63.60
2018-07-27T00:49:38.245Z,63.70
2018-07-27T00:51:41.746Z,63.80
2018-07-27T00:53:45.264Z,63.50
2018-07-27T00:55:48.747Z,63.30
2018-07-27T00:57:52.318Z,62.90
2018-07-27T00:59:55.940Z,62.40
2018-07-27T01:01:59.491Z,63.50
2018-07-27T01:04:02.967Z,63.80
2018-07-27T01:06:06.462Z,64.70
2018-07-27T01:08:09.994Z,64.60
2018-07-27T01:10:13.582Z,65.00
2018-07-27T01:12:17.094Z,64.30
2018-07-27T01:14:20.563Z,64.50
2018-07-27T01:16:26.910Z,64.20
2018-07-27T01:18:30.410Z,64.80
2018-07-27T01:20:34.152Z,65.00
2018-07-27T01:22:38.059Z,65.70
2018-07-27T01:24:41.587Z,65.60
2018-07-27T01:26:45.948Z,64.90
2018-07-27T01:28:49.606Z,64.70
2018-07-27T01:30:53.275Z,64.70
2018-07-27T01:32:56.780Z,64.70
2018-07-27T01:35:00.250Z,65.20
2018-07-27T01:37:03.776Z,65.10
2018-07-27T01:39:10.718Z,65.00
2018-07-27T01:41:14.287Z,64.60
2018-07-27T01:43:17.860Z,64.90
2018-07-27T01:45:21.420Z,64.90
2018-07-27T01:47:24.923Z,64.70
2018-07-27T01:49:29.275Z,64.40
2018-07-27T01:51:32.754Z,64.40
2018-07-27T01:53:36.331Z,64.80
2018-07-27T01:55:39.815Z,64.90
2018-07-27T01:57:43.592Z,65.00
2018-07-27T01:59:47.122Z,65.90
2018-07-27T02:01:50.599Z,66.20
2018-07-27T02:03:54.378Z,67.60
2018-07-27T02:05:57.889Z,67.90
2018-07-27T02:08:01.406Z,67.30
2018-07-27T02:10:05.591Z,66.90
2018-07-27T02:12:09.188Z,66.60
2018-07-27T02:14:12.668Z,66.90
2018-07-27T02:16:16.234Z,68.90
2018-07-27T02:18:19.762Z,69.60
2018-07-27T02:20:23.347Z,69.20
2018-07-27T02:22:26.859Z,69.50
2018-07-27T02:24:30.361Z,69.00
2018-07-27T02:26:33.919Z,68.40
2018-07-27T02:28:37.439Z,68.90
2018-07-27T02:30:40.921Z,67.60
2018-07-27T02:32:44.454Z,67.00
2018-07-27T02:34:47.975Z,66.60
2018-07-27T02:36:51.540Z,67.00
2018-07-27T02:38:55.177Z,67.00
2018-07-27T02:40:58.639Z,65.50
2018-07-27T02:43:02.157Z,66.40
2018-07-27T02:45:06.431Z,66.10
2018-07-27T02:47:09.929Z,66.50
2018-07-27T02:49:13.524Z,67.20
2018-07-27T02:51:17.088Z,68.00
2018-07-27T02:53:20.510Z,68.40
2018-07-27T02:55:24.018Z,68.30
2018-07-27T02:57:27.608Z,67.90
2018-07-27T02:59:31.103Z,68.70
2018-07-27T03:01:34.718Z,69.30
2018-07-27T03:03:38.239Z,70.00
2018-07-27T03:05:41.724Z,69.60
2018-07-27T03:07:45.260Z,68.80
2018-07-27T03:09:48.866Z,69.00
2018-07-27T03:11:52.388Z,68.70
2018-07-27T03:13:55.912Z,68.70
2018-07-27T03:15:59.472Z,69.20
2018-07-27T03:18:03.058Z,69.40
2018-07-27T03:20:06.677Z,69.10
2018-07-27T03:22:10.361Z,69.20
2018-07-27T03:24:13.852Z,69.20
2018-07-27T03:26:17.395Z,69.10
2018-07-27T03:30:24.109Z,68.50
2018-07-27T03:32:27.787Z,70.00
2018-07-27T03:34:31.398Z,71.50
2018-07-27T03:36:34.897Z,72.40
2018-07-27T03:38:40.362Z,71.80
2018-07-27T03:40:43.840Z,71.50
2018-07-27T03:42:47.414Z,70.40
2018-07-27T03:46:54.143Z,70.40
2018-07-27T03:48:57.642Z,70.40
2018-07-27T03:51:01.239Z,71.00
2018-07-27T03:53:04.833Z,71.40
2018-07-27T03:55:08.362Z,71.00
2018-07-27T03:57:11.851Z,70.50
2018-07-27T03:59:15.391Z,71.40
2018-07-27T04:01:18.883Z,72.10
2018-07-27T04:03:22.436Z,72.20
2018-07-27T04:05:26.671Z,73.60
2018-07-27T04:07:30.205Z,74.10
2018-07-27T04:09:33.726Z,75.40
2018-07-27T04:11:37.424Z,76.30
2018-07-27T04:13:40.931Z,76.40
2018-07-27T04:15:44.411Z,76.70
2018-07-27T04:17:56.339Z,77.20
2018-07-27T04:19:59.819Z,77.90
2018-07-27T04:22:03.334Z,78.20
2018-07-27T04:24:06.856Z,76.70
2018-07-27T04:26:10.391Z,76.80
2018-07-27T04:28:14.027Z,77.60
2018-07-27T04:30:17.548Z,77.70
2018-07-27T04:32:21.039Z,76.60
2018-07-27T04:34:24.572Z,77.30
2018-07-27T04:36:28.142Z,76.50
2018-07-27T04:38:31.635Z,75.70
2018-07-27T04:40:35.221Z,75.40
2018-07-27T04:42:39.071Z,76.00
2018-07-27T04:44:42.583Z,77.30
2018-07-27T04:46:46.113Z,77.10
2018-07-27T04:52:56.016Z,75.30
2018-07-27T04:54:59.589Z,76.00
2018-07-27T04:57:03.242Z,75.70
2018-07-27T04:59:06.779Z,73.90
2018-07-27T05:01:10.299Z,73.40
2018-07-27T05:03:13.844Z,73.40
2018-07-27T05:05:17.410Z,73.30
2018-07-27T05:07:20.919Z,74.20
2018-07-27T05:09:24.471Z,73.90
2018-07-27T05:11:28.984Z,73.60
2018-07-27T05:13:32.640Z,74.00
2018-07-27T05:15:36.201Z,74.00
2018-07-27T05:17:39.740Z,74.00
2018-07-27T05:19:43.310Z,73.90
2018-07-27T05:21:46.787Z,72.80
2018-07-27T05:23:50.297Z,72.80
2018-07-27T05:25:53.824Z,73.00
2018-07-27T05:27:57.481Z,73.10
2018-07-27T05:30:01.089Z,73.20
2018-07-27T05:32:04.696Z,72.80
2018-07-27T05:34:08.187Z,72.70
2018-07-27T05:36:11.742Z,72.60
2018-07-27T05:38:15.267Z,71.90
2018-07-27T05:40:18.856Z,71.40
2018-07-27T05:42:22.381Z,71.60
2018-07-27T05:44:32.217Z,71.90
2018-07-27T05:46:35.706Z,72.20
2018-07-27T05:48:39.277Z,71.90
2018-07-27T05:52:45.999Z,71.90
2018-07-27T05:54:49.426Z,71.30
2018-07-27T05:56:52.895Z,71.30
2018-07-27T05:58:56.423Z,71.20
2018-07-27T06:00:59.969Z,71.40
2018-07-27T06:03:03.589Z,71.30
2018-07-27T06:05:07.491Z,71.30
2018-07-27T06:07:11.037Z,70.90
2018-07-27T06:09:14.571Z,70.40
2018-07-27T06:11:18.220Z,69.90
2018-07-27T06:13:21.743Z,70.10
2018-07-27T06:15:25.498Z,70.10
2018-07-27T06:17:29.026Z,69.70
2018-07-27T06:19:32.570Z,69.30
2018-07-27T06:21:36.072Z,68.90
2018-07-27T06:23:39.602Z,69.00
2018-07-27T06:25:43.128Z,69.00
2018-07-27T06:27:46.653Z,68.50
2018-07-27T06:29:50.431Z,68.30
2018-07-27T06:31:53.999Z,68.30
2018-07-27T06:33:57.534Z,69.40
2018-07-27T06:36:01.080Z,68.90
2018-07-27T06:38:04.640Z,68.00
2018-07-27T06:40:08.308Z,67.60
2018-07-27T06:42:12.088Z,67.40
2018-07-27T06:44:15.575Z,68.00
2018-07-27T06:46:19.194Z,68.40
2018-07-27T06:50:25.960Z,69.00
2018-07-27T06:52:29.493Z,69.80
2018-07-27T06:54:32.985Z,70.20
2018-07-27T06:56:36.510Z,69.80
2018-07-27T06:58:39.983Z,70.20
2018-07-27T07:00:43.595Z,69.70
2018-07-27T07:02:47.177Z,69.40
2018-07-27T07:04:50.785Z,69.50
2018-07-27T07:06:54.355Z,68.80
2018-07-27T07:08:57.911Z,68.80
2018-07-27T07:11:01.539Z,69.00
2018-07-27T07:13:05.250Z,70.20
2018-07-27T07:15:09.745Z,69.80
2018-07-27T07:17:13.254Z,68.90
2018-07-27T07:19:16.879Z,68.80
2018-07-27T07:21:20.381Z,68.60
2018-07-27T07:23:23.899Z,69.20
2018-07-27T07:25:27.467Z,68.70
2018-07-27T07:27:30.952Z,69.10
2018-07-27T07:29:34.468Z,69.00
2018-07-27T07:31:37.956Z,68.30
2018-07-27T07:33:41.474Z,69.30
2018-07-27T07:35:45.102Z,69.60
2018-07-27T07:39:52.340Z,68.30
2018-07-27T07:41:55.876Z,68.40
2018-07-27T07:43:59.450Z,67.50
2018-07-27T07:46:02.996Z,67.10
2018-07-27T07:48:06.657Z,67.50
2018-07-27T07:50:10.219Z,67.20
2018-07-27T07:52:13.829Z,66.60
2018-07-27T07:54:17.314Z,67.60
2018-07-27T07:56:20.885Z,66.80
2018-07-27T07:58:24.399Z,67.00
2018-07-27T08:00:27.994Z,67.30
2018-07-27T08:02:31.474Z,66.70
2018-07-27T08:04:34.999Z,67.80
2018-07-27T08:06:38.500Z,69.20
2018-07-27T08:08:42.007Z,68.60
2018-07-27T08:10:45.559Z,67.00
2018-07-27T08:12:49.087Z,66.30
2018-07-27T08:14:52.658Z,66.30
2018-07-27T08:16:56.164Z,65.80
2018-07-27T08:18:59.668Z,64.00
2018-07-27T08:21:03.277Z,64.40
2018-07-27T08:23:06.835Z,65.70
2018-07-27T08:25:10.362Z,65.20
2018-07-27T08:27:13.903Z,64.10
2018-07-27T08:29:18.715Z,63.90
2018-07-27T08:31:22.251Z,64.30
2018-07-27T08:33:25.752Z,65.50
2018-07-27T08:35:29.275Z,66.60
2018-07-27T08:37:32.770Z,65.60
2018-07-27T08:39:37.549Z,64.30
2018-07-27T08:41:41.396Z,65.00
2018-07-27T08:43:45.518Z,65.90
2018-07-27T08:45:49.044Z,66.10
2018-07-27T08:47:52.533Z,66.80
2018-07-27T08:49:56.074Z,65.20
2018-07-27T08:51:59.784Z,65.50
2018-07-27T08:54:03.308Z,65.40
2018-07-27T08:56:07.962Z,66.40
2018-07-27T08:58:11.484Z,65.20
2018-07-27T09:00:15.081Z,64.40
2018-07-27T09:02:18.608Z,64.20
2018-07-27T09:04:22.139Z,62.50
2018-07-27T09:06:25.723Z,62.90
2018-07-27T09:08:29.286Z,62.50
2018-07-27T09:10:32.822Z,63.20
2018-07-27T09:12:36.352Z,62.90
2018-07-27T09:14:39.840Z,62.90
2018-07-27T09:16:43.427Z,61.00
2018-07-27T09:18:46.998Z,62.00
2018-07-27T09:20:50.636Z,61.80
2018-07-27T09:22:54.267Z,61.10
2018-07-27T09:24:57.913Z,60.40
2018-07-27T09:27:01.362Z,59.90
2018-07-27T09:29:04.875Z,61.50
2018-07-27T09:31:08.421Z,60.50
2018-07-27T09:33:11.891Z,60.10
2018-07-27T09:35:15.456Z,59.20
2018-07-27T09:37:19.028Z,59.40
2018-07-27T09:39:22.531Z,59.70
2018-07-27T09:41:26.170Z,59.00
2018-07-27T09:43:29.709Z,60.40
2018-07-27T09:45:33.293Z,60.20
2018-07-27T09:47:36.788Z,60.10
2018-07-27T09:49:40.315Z,60.40
2018-07-27T09:51:43.851Z,59.00
2018-07-27T09:53:47.382Z,59.60
2018-07-27T09:57:54.180Z,59.30
2018-07-27T09:59:57.719Z,59.40
2018-07-27T10:02:01.244Z,59.00
2018-07-27T10:04:04.743Z,58.40
2018-07-27T10:06:08.563Z,57.90
2018-07-27T10:08:12.063Z,57.80
2018-07-27T10:10:15.600Z,57.60
2018-07-27T10:12:19.140Z,58.20
2018-07-27T10:14:22.689Z,57.80
2018-07-27T10:16:26.199Z,56.60
2018-07-27T10:18:29.808Z,56.20
2018-07-27T10:20:33.342Z,55.20
2018-07-27T10:22:36.931Z,54.90
2018-07-27T10:24:40.395Z,55.00
2018-07-27T10:26:43.979Z,55.60
2018-07-27T10:28:47.496Z,55.30
2018-07-27T10:30:51.023Z,53.90
2018-07-27T10:32:54.514Z,54.80
2018-07-27T10:34:58.059Z,55.50
2018-07-27T10:37:01.591Z,54.90
2018-07-27T10:39:08.415Z,53.10
2018-07-27T10:41:11.914Z,54.50
2018-07-27T10:43:15.399Z,54.30
2018-07-27T10:45:19.019Z,52.40
2018-07-27T10:47:22.601Z,51.20
2018-07-27T10:49:26.097Z,53.30
2018-07-27T10:51:29.700Z,52.80
2018-07-27T10:53:33.237Z,54.00
2018-07-27T10:57:39.915Z,51.30
2018-07-27T10:59:49.960Z,51.20
2018-07-27T11:01:53.524Z,51.40
2018-07-27T11:03:57.030Z,50.20
2018-07-27T11:06:00.580Z,50.60
2018-07-27T11:08:04.095Z,50.80
2018-07-27T11:10:08.500Z,48.70
2018-07-27T11:12:12.262Z,48.20
2018-07-27T11:14:15.943Z,47.80
2018-07-27T11:16:19.526Z,48.70
2018-07-27T11:18:23.079Z,49.40
2018-07-27T11:20:26.646Z,49.80
2018-07-27T11:22:30.158Z,50.30
2018-07-27T11:24:33.731Z,50.00
2018-07-27T11:26:37.295Z,49.00
2018-07-27T11:28:40.804Z,49.60
2018-07-27T11:30:44.296Z,48.70
2018-07-27T11:32:47.914Z,48.30
2018-07-27T11:34:51.419Z,49.30
2018-07-27T11:36:55.005Z,50.10
2018-07-27T11:38:58.492Z,51.20
2018-07-27T11:41:01.962Z,50.20
2018-07-27T11:43:05.568Z,49.60
2018-07-27T11:45:09.153Z,49.00
2018-07-27T11:47:12.728Z,48.30
2018-07-27T11:49:16.197Z,48.30
2018-07-27T11:51:20.203Z,48.20
2018-07-27T11:53:23.719Z,47.50
2018-07-27T11:55:27.265Z,46.50
2018-07-27T11:57:30.772Z,45.90
2018-07-27T11:59:34.274Z,46.10
2018-07-27T12:01:37.826Z,45.60
2018-07-27T12:03:41.310Z,46.40
2018-07-27T12:05:44.871Z,46.90
2018-07-27T12:07:48.404Z,47.10
2018-07-27T12:09:51.999Z,47.00
2018-07-27T12:11:55.542Z,47.20
2018-07-27T12:13:59.141Z,46.80
2018-07-27T12:16:02.560Z,46.20
2018-07-27T12:18:06.135Z,46.00
2018-07-27T12:20:09.646Z,46.00
2018-07-27T12:22:13.196Z,46.00
2018-07-27T12:24:16.703Z,45.90
2018-07-27T12:26:20.200Z,45.00
2018-07-27T12:28:23.744Z,45.60
2018-07-27T12:30:27.234Z,45.50
2018-07-27T12:32:30.811Z,45.30
2018-07-27T12:34:34.310Z,44.80
2018-07-27T12:36:37.883Z,45.50
2018-07-27T12:38:41.401Z,46.10
2018-07-27T12:40:44.936Z,45.30
2018-07-27T12:42:48.519Z,45.00
2018-07-27T12:44:52.134Z,45.20
2018-07-27T12:46:55.656Z,45.00
2018-07-27T12:48:59.115Z,44.90
2018-07-27T12:51:02.652Z,45.10
2018-07-27T12:53:06.292Z,44.60
2018-07-27T12:55:09.818Z,43.70
2018-07-27T12:57:13.322Z,44.00
2018-07-27T12:59:16.818Z,43.80
2018-07-27T13:01:20.375Z,44.00
2018-07-27T13:03:23.896Z,43.70
2018-07-27T13:05:27.482Z,43.50
2018-07-27T13:07:30.991Z,44.00
2018-07-27T13:09:34.466Z,45.60
2018-07-27T13:11:37.942Z,43.70
2018-07-27T13:13:41.569Z,42.30
2018-07-27T13:15:45.068Z,42.80
2018-07-27T13:17:48.592Z,44.10
2018-07-27T13:19:52.166Z,43.30
2018-07-27T13:21:55.699Z,43.30
2018-07-27T13:24:00.467Z,43.70
2018-07-27T13:26:25.926Z,43.80
2018-07-27T13:28:14.541Z,42.90
2018-07-27T13:30:18.035Z,42.30
2018-07-27T13:32:21.591Z,42.00
2018-07-27T13:37:10.697Z,41.80
2018-07-27T13:41:17.371Z,42.00
2018-07-27T13:43:20.870Z,42.70
2018-07-27T13:45:24.408Z,42.10
2018-07-27T13:47:27.928Z,43.00
2018-07-27T13:49:31.459Z,42.30
2018-07-27T13:51:34.982Z,42.50
2018-07-27T13:53:38.466Z,42.30
2018-07-27T13:55:41.985Z,42.20
2018-07-27T13:57:45.460Z,41.90
2018-07-27T13:59:49.173Z,41.90
2018-07-27T14:01:52.791Z,43.10
2018-07-27T14:03:56.309Z,42.70
2018-07-27T14:05:59.812Z,42.00
2018-07-27T14:08:03.315Z,43.00
2018-07-27T14:10:06.926Z,43.70
2018-07-27T14:12:10.494Z,43.30
2018-07-27T14:14:14.224Z,43.00
2018-07-27T14:16:17.834Z,42.80
2018-07-27T14:18:21.404Z,41.90
2018-07-27T14:20:24.905Z,41.30
2018-07-27T14:22:28.400Z,42.30
2018-07-27T14:24:31.946Z,42.20
2018-07-27T14:26:35.458Z,42.60
2018-07-27T14:28:39.051Z,42.40
2018-07-27T14:30:42.627Z,42.60
2018-07-27T14:32:46.139Z,42.30
2018-07-27T14:34:50.352Z,41.50
2018-07-27T14:36:53.826Z,41.50
2018-07-27T14:38:57.403Z,41.30
2018-07-27T14:41:00.944Z,42.50
2018-07-27T14:43:04.431Z,42.70
2018-07-27T14:45:07.993Z,42.30
2018-07-27T14:47:11.478Z,43.00
2018-07-27T14:49:16.372Z,42.00
2018-07-27T14:51:19.915Z,41.80
2018-07-27T14:53:23.460Z,40.90
2018-07-27T14:55:26.947Z,40.20
2018-07-27T14:57:30.469Z,40.10
2018-07-27T14:59:33.969Z,40.70
2018-07-27T15:01:37.794Z,41.60
2018-07-27T15:03:41.421Z,41.60
2018-07-27T15:05:44.947Z,40.70
2018-07-27T15:07:48.435Z,39.50
2018-07-27T15:09:51.968Z,39.20
2018-07-27T15:11:55.515Z,38.90
2018-07-27T15:13:59.058Z,39.30
2018-07-27T15:16:02.571Z,40.10
2018-07-27T15:18:06.321Z,39.50
2018-07-27T15:20:09.836Z,39.90
2018-07-27T15:22:13.452Z,39.80
2018-07-27T15:24:17.116Z,38.80
2018-07-27T15:26:20.629Z,41.50
2018-07-27T15:28:24.184Z,41.20
2018-07-27T15:30:27.751Z,40.30
2018-07-27T15:32:31.243Z,40.30
2018-07-27T15:34:34.788Z,39.50
2018-07-27T15:36:38.371Z,40.20
2018-07-27T15:40:45.200Z,41.70
2018-07-27T15:42:48.782Z,40.70
2018-07-27T15:44:52.262Z,41.20
2018-07-27T15:46:55.803Z,41.40
2018-07-27T15:48:59.331Z,41.40
2018-07-27T15:51:02.876Z,42.00
2018-07-27T15:53:06.390Z,41.60
2018-07-27T15:55:09.929Z,41.60
2018-07-27T15:57:13.559Z,41.60
2018-07-27T15:59:17.058Z,41.50
2018-07-27T16:01:20.635Z,40.70
2018-07-27T16:03:24.132Z,41.10
2018-07-27T16:05:27.666Z,40.70
2018-07-27T16:07:31.203Z,40.90
2018-07-27T16:09:34.733Z,41.00
2018-07-27T16:11:38.259Z,42.20
2018-07-27T16:13:41.770Z,42.60
2018-07-27T16:15:45.271Z,42.40
2018-07-27T16:17:48.762Z,42.20
2018-07-27T16:19:52.311Z,42.40
2018-07-27T16:21:56.461Z,41.60
2018-07-27T16:24:00.102Z,41.20
2018-07-27T16:26:03.609Z,41.50
2018-07-27T16:28:07.131Z,42.10
2018-07-27T16:30:10.748Z,41.30
2018-07-27T16:32:14.349Z,41.00
2018-07-27T16:34:17.869Z,40.50
2018-07-27T16:36:21.591Z,40.70
2018-07-27T16:38:25.157Z,41.00
2018-07-27T16:40:28.807Z,40.40
2018-07-27T16:42:32.272Z,40.40
2018-07-27T16:44:35.788Z,40.10
2018-07-27T16:46:39.314Z,40.20
2018-07-27T16:48:42.834Z,40.40
2018-07-27T16:50:46.383Z,40.40
2018-07-27T16:52:49.983Z,40.30
2018-07-27T16:54:53.544Z,40.00
2018-07-27T16:56:57.307Z,40.30
2018-07-27T16:59:00.951Z,39.60
2018-07-27T17:01:04.537Z,39.60
2018-07-27T17:03:08.033Z,40.60
2018-07-27T17:05:11.599Z,41.60
2018-07-27T17:07:15.135Z,41.30
2018-07-27T17:09:18.767Z,43.00
2018-07-27T17:11:22.207Z,44.20
2018-07-27T17:13:25.805Z,45.40
2018-07-27T17:15:29.274Z,46.10
2018-07-27T17:17:32.803Z,45.90
2018-07-27T17:19:36.326Z,46.30
2018-07-27T17:21:39.822Z,46.40
2018-07-27T17:23:43.330Z,46.40
2018-07-27T17:25:46.980Z,47.50
2018-07-27T17:27:50.371Z,47.60
2018-07-27T17:29:53.931Z,47.50
2018-07-27T17:31:57.523Z,47.30
2018-07-27T17:34:01.106Z,47.30
2018-07-27T17:36:04.642Z,46.90
2018-07-27T17:38:08.246Z,47.50
2018-07-27T17:40:11.782Z,48.60
2018-07-27T17:42:15.520Z,48.30
2018-07-27T17:46:22.253Z,47.40
2018-07-27T17:48:25.862Z,47.10
2018-07-27T17:50:29.359Z,47.00
2018-07-27T17:52:32.887Z,46.80
2018-07-27T17:54:36.382Z,46.70
2018-07-27T17:56:40.026Z,47.10
2018-07-27T17:58:43.524Z,47.30
2018-07-27T18:00:47.039Z,47.50
2018-07-27T18:02:50.562Z,48.00
2018-07-27T18:04:54.206Z,48.20
2018-07-27T18:06:57.767Z,48.50
2018-07-27T18:09:01.246Z,48.60
2018-07-27T18:11:04.779Z,48.60
2018-07-27T18:13:08.356Z,48.60
2018-07-27T18:15:11.863Z,49.60
2018-07-27T18:17:15.347Z,49.50
2018-07-27T18:19:18.869Z,49.10
2018-07-27T18:21:22.368Z,48.80
2018-07-27T18:23:25.952Z,49.10
2018-07-27T18:25:29.524Z,49.20
2018-07-27T18:27:33.020Z,49.20
2018-07-27T18:29:36.558Z,49.20
2018-07-27T18:31:40.145Z,49.10
2018-07-27T18:33:43.664Z,48.80
2018-07-27T18:35:47.195Z,48.60
2018-07-27T18:37:50.718Z,48.60
2018-07-27T18:39:54.570Z,48.30
2018-07-27T18:41:58.109Z,48.60
2018-07-27T18:44:01.631Z,48.70
2018-07-27T18:46:05.256Z,48.70
2018-07-27T18:48:08.782Z,49.20
2018-07-27T18:50:12.331Z,49.40
2018-07-27T18:52:15.914Z,49.40
2018-07-27T18:54:19.447Z,49.00
2018-07-27T18:56:23.191Z,49.10
2018-07-27T18:58:26.663Z,49.00
2018-07-27T19:00:30.262Z,49.40
2018-07-27T19:02:33.883Z,49.40
2018-07-27T19:04:37.415Z,49.40
2018-07-27T19:06:40.956Z,49.80
2018-07-27T19:08:44.472Z,49.60
2018-07-27T19:10:48.003Z,49.60
2018-07-27T19:12:51.526Z,49.80
2018-07-27T19:14:55.094Z,49.60
2018-07-27T19:16:58.686Z,49.70
2018-07-27T19:19:02.252Z,50.30
2018-07-27T19:21:05.917Z,50.30
2018-07-27T19:23:09.574Z,50.30
2018-07-27T19:25:13.088Z,50.50
2018-07-27T19:27:16.627Z,50.70
2018-07-27T19:29:20.171Z,51.30
2018-07-27T19:31:23.695Z,51.50
2018-07-27T19:33:27.361Z,51.50
2018-07-27T19:35:30.905Z,51.60
2018-07-27T19:37:34.418Z,51.60
2018-07-27T19:39:37.937Z,51.30
2018-07-27T19:41:42.288Z,51.30
2018-07-27T19:43:45.876Z,51.50
2018-07-27T19:45:49.383Z,52.00
2018-07-27T19:47:52.916Z,52.30
2018-07-27T19:49:56.504Z,52.20
2018-07-27T19:52:00.168Z,52.10
2018-07-27T19:54:03.735Z,53.00
2018-07-27T19:56:07.538Z,53.10
2018-07-27T19:58:11.040Z,52.80
2018-07-27T20:00:14.547Z,53.40
2018-07-27T20:02:18.148Z,53.70
2018-07-27T20:04:21.631Z,54.10
2018-07-27T20:06:25.496Z,53.80
2018-07-27T20:08:29.055Z,53.70
2018-07-27T20:10:32.634Z,53.30
2018-07-27T20:12:36.150Z,53.50
2018-07-27T20:14:39.678Z,53.90
2018-07-27T20:16:43.248Z,54.60
2018-07-27T20:18:46.750Z,54.90
2018-07-27T20:20:50.273Z,55.10
2018-07-27T20:22:53.833Z,55.10
2018-07-27T20:24:57.376Z,54.70
2018-07-27T20:27:00.963Z,55.50
2018-07-27T20:29:04.688Z,55.70
2018-07-27T20:31:08.208Z,56.10
2018-07-27T20:33:11.774Z,56.30
2018-07-27T20:35:15.311Z,55.90
2018-07-27T20:37:18.925Z,56.50
2018-07-27T20:39:22.441Z,55.30
2018-07-27T20:41:25.984Z,56.50
2018-07-27T20:43:29.554Z,56.60
2018-07-27T20:45:33.117Z,56.70
2018-07-27T20:47:37.188Z,56.60
2018-07-27T20:49:40.750Z,57.00
2018-07-27T20:51:44.356Z,57.40
2018-07-27T20:53:47.847Z,58.60
2018-07-27T20:55:51.370Z,58.00
2018-07-27T20:57:54.937Z,58.30
2018-07-27T20:59:58.476Z,58.40
2018-07-27T21:02:02.056Z,58.60
2018-07-27T21:04:05.631Z,59.00
2018-07-27T21:06:09.121Z,59.10
2018-07-27T21:08:12.628Z,59.50
2018-07-27T21:10:16.161Z,60.40
2018-07-27T21:12:19.711Z,59.60
2018-07-27T21:14:23.279Z,59.70
2018-07-27T21:16:26.858Z,59.60
2018-07-27T21:18:30.524Z,58.70
2018-07-27T21:20:34.049Z,59.10
2018-07-27T21:22:37.684Z,59.60
2018-07-27T21:24:41.184Z,59.90
2018-07-27T21:26:44.734Z,60.00
2018-07-27T21:28:48.357Z,60.10
2018-07-27T21:30:52.034Z,60.90
2018-07-27T21:32:55.560Z,60.20
2018-07-27T21:34:59.135Z,60.10
2018-07-27T21:37:02.843Z,60.50
2018-07-27T21:39:09.579Z,60.10
2018-07-27T21:41:13.147Z,60.50
2018-07-27T21:45:19.806Z,60.90
2018-07-27T21:47:23.382Z,60.80
2018-07-27T21:49:26.911Z,61.10
2018-07-27T21:51:30.396Z,61.60
2018-07-27T21:53:33.956Z,62.30
2018-07-27T21:55:37.492Z,61.50
2018-07-27T21:57:41.054Z,61.30
2018-07-27T21:59:44.596Z,61.30
2018-07-27T22:01:48.127Z,61.80
2018-07-27T22:03:51.660Z,61.70
2018-07-27T22:05:55.181Z,61.50
2018-07-27T22:07:58.760Z,62.00
2018-07-27T22:10:02.330Z,62.10
2018-07-27T22:12:05.864Z,62.00
2018-07-27T22:14:09.408Z,61.60
2018-07-27T22:16:12.912Z,61.10
2018-07-27T22:18:16.436Z,62.10
2018-07-27T22:20:23.675Z,62.00
2018-07-27T22:22:27.400Z,62.30
2018-07-27T22:24:30.904Z,62.90
2018-07-27T22:26:34.475Z,63.60
2018-07-27T22:28:38.033Z,64.10
2018-07-27T22:30:41.579Z,64.20
2018-07-27T22:32:45.183Z,64.10
2018-07-27T22:34:48.660Z,63.70
2018-07-27T22:36:52.239Z,63.60
2018-07-27T22:38:55.843Z,63.90
2018-07-27T22:40:59.462Z,63.70
2018-07-27T22:43:03.039Z,63.30
2018-07-27T22:45:07.885Z,63.00
2018-07-27T22:47:11.377Z,62.80
2018-07-27T22:49:15.040Z,62.20
2018-07-27T22:51:18.586Z,61.90
2018-07-27T22:53:22.106Z,62.10
2018-07-27T22:55:25.628Z,61.60
2018-07-27T22:57:29.459Z,61.40
2018-07-27T22:59:33.028Z,62.60
2018-07-27T23:03:39.910Z,61.60
2018-07-27T23:05:43.390Z,61.40
2018-07-27T23:07:46.982Z,61.40
2018-07-27T23:09:50.608Z,62.40
2018-07-27T23:11:54.179Z,61.60
2018-07-27T23:13:57.753Z,61.40
2018-07-27T23:16:01.397Z,62.10
2018-07-27T23:18:04.951Z,61.60
2018-07-27T23:20:10.731Z,62.00
2018-07-27T23:22:14.274Z,61.80
2018-07-27T23:24:18.174Z,61.40
2018-07-27T23:26:21.689Z,61.30
2018-07-27T23:28:25.214Z,61.40
2018-07-27T23:30:28.787Z,61.50
2018-07-27T23:32:32.338Z,61.50
2018-07-27T23:34:35.890Z,61.80
2018-07-27T23:36:39.399Z,61.70
2018-07-27T23:38:42.953Z,61.60
2018-07-27T23:40:46.462Z,61.70
2018-07-27T23:42:50.046Z,61.50
2018-07-27T23:44:53.663Z,61.50
2018-07-27T23:46:57.236Z,61.50
2018-07-27T23:49:00.751Z,61.80
2018-07-27T23:51:04.343Z,61.60
2018-07-27T23:53:07.984Z,61.70
2018-07-27T23:55:11.568Z,62.20
2018-07-27T23:57:15.073Z,62.50
2018-07-27T23:59:18.660Z,62.90
